KIAG/IAG METAR and TAF weather

Enter ICAO airport designator
Station Type Date Time Source
KIAG METAR 2020/09/26 23:53 UTC NOAA

KIAG 262353Z 19004KT 10SM CLR 20/14 A2988 RMK AO2 SLP119 T02000144 10261 20200 55003 $


Station Type Date Time Source
KIAG Decoded METAR 2020/09/26 23:53 UTC NOAA

NIAGARA FALLS INTERNATIONAL AIRPORT, NY, United States (KIAG) 43-07N 078-56W 182M
Sep 26, 2020 - 07:53 PM EDT / 2020.09.26 2353 UTC
Wind: from the S (190 degrees) at 5 MPH (4 KT):0
Visibility: 10 mile(s):0
Sky conditions: clear
Temperature: 68.0 F (20.0 C)
Dew Point: 57.9 F (14.4 C)
Relative Humidity: 70%
Pressure (altimeter): 29.88 in. Hg (1011 hPa)
Pressure tendency: 0.01 inches (0.3 hPa) lower than three hours ago
ob: KIAG 262353Z 19004KT 10SM CLR 20/14 A2988 RMK AO2 SLP119 T02000144 10261 20200 55003
cycle: 0

Station Type Date Time Source
KIAG TAF 2020/09/26 21:24 UTC NOAA

TAF
AMD KIAG 262123Z 2621/2718 23012KT P6SM FEW050 SCT100 BKN250
FM270200 19010KT P6SM SCT120 BKN250
FM271400 20015G25KT P6SM FEW250

Example: see airport list